sensor_id;sensor_type;location;lat;lon;timestamp;noise_LAeq;noise_LA_min;noise_LA_max;noise_LA01;noise_LA95
66450;Laerm;56829;52.274;4.770;2022-10-16T00:00:09;36.03;34.43;38.35;;
66450;Laerm;56829;52.274;4.770;2022-10-16T00:00:19;36.25;34.39;38.21;;
66450;Laerm;56829;52.274;4.770;2022-10-16T00:00:29;36.90;35.03;38.54;;
66450;Laerm;56829;52.274;4.770;2022-10-16T00:00:40;37.11;34.99;38.98;;
66450;Laerm;56829;52.274;4.770;2022-10-16T00:00:50;36.33;34.28;38.21;;
66450;Laerm;56829;52.274;4.770;2022-10-16T00:01:04;45.98;35.49;56.56;;
66450;Laerm;56829;52.274;4.770;2022-10-16T00:01:15;50.01;36.28;60.71;;
66450;Laerm;56829;52.274;4.770;2022-10-16T00:01:27;38.75;35.35;43.39;;
66450;Laerm;56829;52.274;4.770;2022-10-16T00:01:37;38.34;35.54;42.41;;
66450;Laerm;56829;52.274;4.770;2022-10-16T00:01:47;36.99;34.73;41.39;;
66450;Laerm;56829;52.274;4.770;2022-10-16T00:01:58;38.83;36.27;42.74;;
66450;Laerm;56829;52.274;4.770;2022-10-16T00:02:08;38.05;35.80;43.89;;
66450;Laerm;56829;52.274;4.770;2022-10-16T00:02:18;38.00;35.50;47.98;;
66450;Laerm;56829;52.274;4.770;2022-10-16T00:02:28;35.85;34.34;38.13;;
66450;Laerm;56829;52.274;4.770;2022-10-16T00:02:38;38.09;35.53;41.38;;
66450;Laerm;56829;52.274;4.770;2022-10-16T00:02:48;41.09;37.74;46.21;;
66450;Laerm;56829;52.274;4.770;2022-10-16T00:02:59;38.15;36.66;40.03;;
66450;Laerm;56829;52.274;4.770;2022-10-16T00:03:09;38.29;35.54;39.96;;
66450;Laerm;56829;52.274;4.770;2022-10-16T00:03:20;43.56;38.11;51.08;;
66450;Laerm;56829;52.274;4.770;2022-10-16T00:03:30;51.16;38.62;59.09;;
66450;Laerm;56829;52.274;4.770;2022-10-16T00:03:40;38.29;35.85;42.38;;
66450;Laerm;56829;52.274;4.770;2022-10-16T00:03:51;45.06;37.07;53.84;;
66450;Laerm;56829;52.274;4.770;2022-10-16T00:04:02;53.78;41.51;62.02;;
66450;Laerm;56829;52.274;4.770;2022-10-16T00:04:12;44.99;39.60;53.18;;
66450;Laerm;56829;52.274;4.770;2022-10-16T00:04:22;49.71;39.58;58.87;;
66450;Laerm;56829;52.274;4.770;2022-10-16T00:04:33;39.64;37.54;42.79;;
66450;Laerm;56829;52.274;4.770;2022-10-16T00:04:43;39.73;36.01;44.02;;
66450;Laerm;56829;52.274;4.770;2022-10-16T00:04:53;37.70;35.63;40.02;;
66450;Laerm;56829;52.274;4.770;2022-10-16T00:05:04;36.94;34.79;39.60;;
66450;Laerm;56829;52.274;4.770;2022-10-16T00:05:15;36.38;34.29;39.88;;
66450;Laerm;56829;52.274;4.770;2022-10-16T00:05:25;36.07;33.62;39.34;;
66450;Laerm;56829;52.274;4.770;2022-10-16T00:05:41;36.02;34.28;37.68;;
66450;Laerm;56829;52.274;4.770;2022-10-16T00:05:52;36.91;33.86;39.23;;
66450;Laerm;56829;52.274;4.770;2022-10-16T00:06:03;36.33;34.67;37.67;;
66450;Laerm;56829;52.274;4.770;2022-10-16T00:06:14;37.29;34.86;39.73;;
66450;Laerm;56829;52.274;4.770;2022-10-16T00:06:25;37.78;35.84;39.88;;
66450;Laerm;56829;52.274;4.770;2022-10-16T00:06:35;37.18;34.44;41.23;;
66450;Laerm;56829;52.274;4.770;2022-10-16T00:06:46;35.63;33.97;37.56;;
66450;Laerm;56829;52.274;4.770;2022-10-16T00:06:56;35.76;33.03;38.38;;
66450;Laerm;56829;52.274;4.770;2022-10-16T00:07:06;35.91;34.12;37.32;;
66450;Laerm;56829;52.274;4.770;2022-10-16T00:07:16;35.72;33.78;37.41;;
66450;Laerm;56829;52.274;4.770;2022-10-16T00:07:26;34.87;33.25;36.61;;
66450;Laerm;56829;52.274;4.770;2022-10-16T00:07:37;35.43;33.31;37.49;;
66450;Laerm;56829;52.274;4.770;2022-10-16T00:07:47;35.15;33.63;37.06;;
66450;Laerm;56829;52.274;4.770;2022-10-16T00:07:57;35.40;32.93;40.90;;
66450;Laerm;56829;52.274;4.770;2022-10-16T00:08:08;35.70;34.07;39.70;;
66450;Laerm;56829;52.274;4.770;2022-10-16T00:08:18;35.82;33.82;37.21;;
66450;Laerm;56829;52.274;4.770;2022-10-16T00:08:28;35.81;33.48;37.78;;
66450;Laerm;56829;52.274;4.770;2022-10-16T00:08:39;37.27;34.84;41.03;;
66450;Laerm;56829;52.274;4.770;2022-10-16T00:08:51;38.50;36.30;42.02;;
66450;Laerm;56829;52.274;4.770;2022-10-16T00:09:02;38.06;35.82;40.64;;
66450;Laerm;56829;52.274;4.770;2022-10-16T00:09:12;48.87;40.11;54.64;;
66450;Laerm;56829;52.274;4.770;2022-10-16T00:09:22;46.10;36.62;54.06;;
66450;Laerm;56829;52.274;4.770;2022-10-16T00:09:33;38.65;36.19;43.04;;
66450;Laerm;56829;52.274;4.770;2022-10-16T00:09:43;47.97;42.00;53.72;;
66450;Laerm;56829;52.274;4.770;2022-10-16T00:09:53;43.32;37.70;48.43;;
66450;Laerm;56829;52.274;4.770;2022-10-16T00:10:04;38.44;36.26;41.64;;
66450;Laerm;56829;52.274;4.770;2022-10-16T00:10:14;40.73;37.12;45.40;;
66450;Laerm;56829;52.274;4.770;2022-10-16T00:10:24;49.60;38.39;56.71;;
66450;Laerm;56829;52.274;4.770;2022-10-16T00:10:35;37.25;35.00;39.65;;
66450;Laerm;56829;52.274;4.770;2022-10-16T00:10:45;35.78;33.86;37.36;;
66450;Laerm;56829;52.274;4.770;2022-10-16T00:10:59;36.48;34.87;38.78;;
66450;Laerm;56829;52.274;4.770;2022-10-16T00:11:10;44.68;37.56;51.38;;
66450;Laerm;56829;52.274;4.770;2022-10-16T00:11:22;36.19;33.84;39.40;;
66450;Laerm;56829;52.274;4.770;2022-10-16T00:11:33;36.30;34.09;38.97;;
66450;Laerm;56829;52.274;4.770;2022-10-16T00:11:44;39.18;36.46;41.81;;
66450;Laerm;56829;52.274;4.770;2022-10-16T00:11:54;45.75;40.51;54.02;;
66450;Laerm;56829;52.274;4.770;2022-10-16T00:12:04;58.55;51.29;65.40;;
66450;Laerm;56829;52.274;4.770;2022-10-16T00:12:16;60.25;46.92;68.82;;
66450;Laerm;56829;52.274;4.770;2022-10-16T00:12:26;48.38;38.06;61.00;;
66450;Laerm;56829;52.274;4.770;2022-10-16T00:12:36;39.15;35.23;44.16;;
66450;Laerm;56829;52.274;4.770;2022-10-16T00:12:47;41.44;35.91;47.50;;
66450;Laerm;56829;52.274;4.770;2022-10-16T00:12:57;46.30;37.01;52.65;;
66450;Laerm;56829;52.274;4.770;2022-10-16T00:13:07;36.86;34.87;38.68;;
66450;Laerm;56829;52.274;4.770;2022-10-16T00:13:17;40.68;34.51;51.38;;
66450;Laerm;56829;52.274;4.770;2022-10-16T00:13:29;39.79;36.41;47.71;;
66450;Laerm;56829;52.274;4.770;2022-10-16T00:13:41;46.41;38.15;54.06;;
66450;Laerm;56829;52.274;4.770;2022-10-16T00:13:53;42.23;37.01;48.76;;
66450;Laerm;56829;52.274;4.770;2022-10-16T00:14:05;36.86;34.98;39.37;;
66450;Laerm;56829;52.274;4.770;2022-10-16T00:14:16;36.12;34.12;43.41;;
66450;Laerm;56829;52.274;4.770;2022-10-16T00:14:26;36.28;33.72;41.73;;
66450;Laerm;56829;52.274;4.770;2022-10-16T00:14:36;35.12;33.44;36.55;;
66450;Laerm;56829;52.274;4.770;2022-10-16T00:14:47;35.49;33.26;37.22;;
66450;Laerm;56829;52.274;4.770;2022-10-16T00:14:57;38.23;34.04;53.92;;
66450;Laerm;56829;52.274;4.770;2022-10-16T00:15:07;37.98;35.59;46.20;;
66450;Laerm;56829;52.274;4.770;2022-10-16T00:15:17;37.86;35.46;43.88;;
66450;Laerm;56829;52.274;4.770;2022-10-16T00:15:28;36.69;34.97;39.06;;
66450;Laerm;56829;52.274;4.770;2022-10-16T00:15:38;39.03;37.18;40.94;;
66450;Laerm;56829;52.274;4.770;2022-10-16T00:15:49;38.12;35.04;42.29;;
66450;Laerm;56829;52.274;4.770;2022-10-16T00:15:59;39.03;34.96;46.57;;
66450;Laerm;56829;52.274;4.770;2022-10-16T00:16:10;40.13;36.40;47.43;;
66450;Laerm;56829;52.274;4.770;2022-10-16T00:16:21;36.95;34.67;40.17;;
66450;Laerm;56829;52.274;4.770;2022-10-16T00:16:31;36.28;34.30;37.96;;
66450;Laerm;56829;52.274;4.770;2022-10-16T00:16:42;37.09;34.56;40.40;;
66450;Laerm;56829;52.274;4.770;2022-10-16T00:16:52;38.58;36.41;41.27;;
66450;Laerm;56829;52.274;4.770;2022-10-16T00:17:02;38.39;36.14;42.08;;
66450;Laerm;56829;52.274;4.770;2022-10-16T00:17:12;50.81;39.85;59.84;;
66450;Laerm;56829;52.274;4.770;2022-10-16T00:17:23;45.01;36.76;53.10;;
66450;Laerm;56829;52.274;4.770;2022-10-16T00:17:33;40.90;36.96;47.23;;
66450;Laerm;56829;52.274;4.770;2022-10-16T00:17:43;47.96;44.09;52.72;;
66450;Laerm;56829;52.274;4.770;2022-10-16T00:17:53;44.95;41.32;50.08;;
66450;Laerm;56829;52.274;4.770;2022-10-16T00:18:04;42.18;37.93;48.52;;
66450;Laerm;56829;52.274;4.770;2022-10-16T00:18:14;45.92;40.06;52.58;;
66450;Laerm;56829;52.274;4.770;2022-10-16T00:18:25;39.54;36.55;41.78;;
66450;Laerm;56829;52.274;4.770;2022-10-16T00:18:36;37.73;35.69;39.79;;
66450;Laerm;56829;52.274;4.770;2022-10-16T00:18:47;40.54;37.63;44.94;;
66450;Laerm;56829;52.274;4.770;2022-10-16T00:18:57;48.63;40.12;58.76;;
66450;Laerm;56829;52.274;4.770;2022-10-16T00:19:09;38.68;36.47;41.42;;
66450;Laerm;56829;52.274;4.770;2022-10-16T00:19:19;37.25;35.57;40.43;;
66450;Laerm;56829;52.274;4.770;2022-10-16T00:19:29;36.33;34.29;39.93;;
66450;Laerm;56829;52.274;4.770;2022-10-16T00:19:39;36.05;34.21;39.21;;
66450;Laerm;56829;52.274;4.770;2022-10-16T00:19:49;38.81;35.03;42.35;;
66450;Laerm;56829;52.274;4.770;2022-10-16T00:20:00;51.98;41.44;60.17;;
66450;Laerm;56829;52.274;4.770;2022-10-16T00:20:10;41.37;36.62;47.72;;
66450;Laerm;56829;52.274;4.770;2022-10-16T00:20:20;37.72;36.36;39.64;;
66450;Laerm;56829;52.274;4.770;2022-10-16T00:20:33;38.45;36.90;40.64;;
66450;Laerm;56829;52.274;4.770;2022-10-16T00:20:44;40.30;37.52;44.54;;
66450;Laerm;56829;52.274;4.770;2022-10-16T00:20:54;48.76;39.81;55.45;;
66450;Laerm;56829;52.274;4.770;2022-10-16T00:21:05;46.31;36.88;57.22;;
66450;Laerm;56829;52.274;4.770;2022-10-16T00:21:17;37.20;35.19;40.19;;
66450;Laerm;56829;52.274;4.770;2022-10-16T00:21:28;40.01;35.52;42.79;;
66450;Laerm;56829;52.274;4.770;2022-10-16T00:21:39;39.91;37.09;43.26;;
66450;Laerm;56829;52.274;4.770;2022-10-16T00:21:49;45.10;37.33;51.29;;
66450;Laerm;56829;52.274;4.770;2022-10-16T00:21:59;42.34;38.29;50.22;;
66450;Laerm;56829;52.274;4.770;2022-10-16T00:22:09;39.52;37.40;42.05;;
66450;Laerm;56829;52.274;4.770;2022-10-16T00:22:19;44.38;38.76;52.35;;
66450;Laerm;56829;52.274;4.770;2022-10-16T00:22:30;38.70;36.83;42.02;;
66450;Laerm;56829;52.274;4.770;2022-10-16T00:22:40;42.76;38.47;45.92;;
66450;Laerm;56829;52.274;4.770;2022-10-16T00:22:50;41.03;38.08;43.90;;
66450;Laerm;56829;52.274;4.770;2022-10-16T00:23:00;38.40;36.35;44.94;;
66450;Laerm;56829;52.274;4.770;2022-10-16T00:23:10;40.88;36.85;46.26;;
66450;Laerm;56829;52.274;4.770;2022-10-16T00:23:21;40.00;38.12;42.03;;
66450;Laerm;56829;52.274;4.770;2022-10-16T00:23:31;39.51;37.42;44.14;;
66450;Laerm;56829;52.274;4.770;2022-10-16T00:23:42;37.51;36.18;38.96;;
66450;Laerm;56829;52.274;4.770;2022-10-16T00:23:53;37.11;35.56;39.00;;
66450;Laerm;56829;52.274;4.770;2022-10-16T00:24:05;36.85;34.65;39.77;;
66450;Laerm;56829;52.274;4.770;2022-10-16T00:24:15;38.38;36.40;40.71;;
66450;Laerm;56829;52.274;4.770;2022-10-16T00:24:25;38.33;36.04;41.37;;
66450;Laerm;56829;52.274;4.770;2022-10-16T00:24:36;39.06;36.83;41.56;;
66450;Laerm;56829;52.274;4.770;2022-10-16T00:24:46;38.51;36.82;40.88;;
66450;Laerm;56829;52.274;4.770;2022-10-16T00:24:56;37.23;35.27;38.84;;
66450;Laerm;56829;52.274;4.770;2022-10-16T00:25:06;37.60;35.86;39.97;;
66450;Laerm;56829;52.274;4.770;2022-10-16T00:25:17;37.82;35.72;39.69;;
66450;Laerm;56829;52.274;4.770;2022-10-16T00:25:27;37.19;35.64;39.05;;
66450;Laerm;56829;52.274;4.770;2022-10-16T00:25:37;41.38;37.49;45.39;;
66450;Laerm;56829;52.274;4.770;2022-10-16T00:25:54;48.91;41.83;54.24;;
66450;Laerm;56829;52.274;4.770;2022-10-16T00:26:06;40.54;37.72;45.32;;
66450;Laerm;56829;52.274;4.770;2022-10-16T00:26:17;41.69;38.04;46.38;;
66450;Laerm;56829;52.274;4.770;2022-10-16T00:26:28;40.08;38.07;41.83;;
66450;Laerm;56829;52.274;4.770;2022-10-16T00:26:39;44.72;39.71;52.55;;
66450;Laerm;56829;52.274;4.770;2022-10-16T00:26:49;52.55;44.70;58.82;;
66450;Laerm;56829;52.274;4.770;2022-10-16T00:27:00;41.02;36.86;48.61;;
66450;Laerm;56829;52.274;4.770;2022-10-16T00:27:10;41.72;37.90;50.69;;
66450;Laerm;56829;52.274;4.770;2022-10-16T00:27:21;41.97;39.63;45.21;;
66450;Laerm;56829;52.274;4.770;2022-10-16T00:27:31;40.83;37.25;44.11;;
66450;Laerm;56829;52.274;4.770;2022-10-16T00:27:41;37.10;34.92;38.75;;
66450;Laerm;56829;52.274;4.770;2022-10-16T00:27:51;36.73;34.87;47.77;;
66450;Laerm;56829;52.274;4.770;2022-10-16T00:28:02;37.04;35.55;39.23;;
66450;Laerm;56829;52.274;4.770;2022-10-16T00:28:12;37.14;34.73;41.64;;
66450;Laerm;56829;52.274;4.770;2022-10-16T00:28:22;36.55;34.86;39.84;;
66450;Laerm;56829;52.274;4.770;2022-10-16T00:28:33;36.57;34.28;41.04;;
66450;Laerm;56829;52.274;4.770;2022-10-16T00:28:46;35.88;33.82;37.97;;
66450;Laerm;56829;52.274;4.770;2022-10-16T00:28:56;36.91;34.72;40.13;;
66450;Laerm;56829;52.274;4.770;2022-10-16T00:29:07;36.20;34.30;38.95;;
66450;Laerm;56829;52.274;4.770;2022-10-16T00:29:17;36.45;35.04;38.25;;
66450;Laerm;56829;52.274;4.770;2022-10-16T00:29:27;36.72;35.05;37.97;;
66450;Laerm;56829;52.274;4.770;2022-10-16T00:29:37;36.85;34.95;40.05;;
66450;Laerm;56829;52.274;4.770;2022-10-16T00:29:51;36.60;34.85;39.51;;
66450;Laerm;56829;52.274;4.770;2022-10-16T00:30:01;36.24;33.50;39.68;;
66450;Laerm;56829;52.274;4.770;2022-10-16T00:30:11;35.01;33.21;36.84;;
66450;Laerm;56829;52.274;4.770;2022-10-16T00:30:21;35.97;33.99;38.66;;
66450;Laerm;56829;52.274;4.770;2022-10-16T00:30:33;36.57;34.69;39.87;;
66450;Laerm;56829;52.274;4.770;2022-10-16T00:30:43;36.56;34.57;38.63;;
66450;Laerm;56829;52.274;4.770;2022-10-16T00:30:53;37.21;35.28;39.97;;
66450;Laerm;56829;52.274;4.770;2022-10-16T00:31:05;37.56;35.54;39.88;;
66450;Laerm;56829;52.274;4.770;2022-10-16T00:31:16;44.98;36.17;52.37;;
66450;Laerm;56829;52.274;4.770;2022-10-16T00:31:26;45.83;35.34;54.80;;
66450;Laerm;56829;52.274;4.770;2022-10-16T00:31:37;36.14;34.43;38.34;;
66450;Laerm;56829;52.274;4.770;2022-10-16T00:31:47;35.13;33.36;37.14;;
66450;Laerm;56829;52.274;4.770;2022-10-16T00:31:57;35.62;32.37;42.84;;
66450;Laerm;56829;52.274;4.770;2022-10-16T00:32:07;37.38;35.31;43.83;;
66450;Laerm;56829;52.274;4.770;2022-10-16T00:32:18;35.91;33.83;37.95;;
66450;Laerm;56829;52.274;4.770;2022-10-16T00:32:29;36.33;33.48;38.48;;
66450;Laerm;56829;52.274;4.770;2022-10-16T00:32:39;38.94;35.86;43.84;;
66450;Laerm;56829;52.274;4.770;2022-10-16T00:32:49;39.09;37.02;41.12;;
66450;Laerm;56829;52.274;4.770;2022-10-16T00:33:00;39.46;37.03;42.25;;
66450;Laerm;56829;52.274;4.770;2022-10-16T00:33:10;39.54;37.27;46.51;;
66450;Laerm;56829;52.274;4.770;2022-10-16T00:33:20;39.70;37.16;44.07;;
66450;Laerm;56829;52.274;4.770;2022-10-16T00:33:30;37.02;34.79;39.25;;
66450;Laerm;56829;52.274;4.770;2022-10-16T00:33:41;41.59;33.80;50.25;;
66450;Laerm;56829;52.274;4.770;2022-10-16T00:33:51;37.16;34.69;41.35;;
66450;Laerm;56829;52.274;4.770;2022-10-16T00:34:01;42.91;35.49;51.14;;
66450;Laerm;56829;52.274;4.770;2022-10-16T00:34:11;52.57;41.35;60.77;;
66450;Laerm;56829;52.274;4.770;2022-10-16T00:34:21;38.82;34.42;45.27;;
66450;Laerm;56829;52.274;4.770;2022-10-16T00:34:32;36.10;34.07;38.21;;
66450;Laerm;56829;52.274;4.770;2022-10-16T00:34:42;35.72;34.27;37.39;;
66450;Laerm;56829;52.274;4.770;2022-10-16T00:34:52;37.65;34.98;43.08;;
66450;Laerm;56829;52.274;4.770;2022-10-16T00:35:04;50.65;38.25;58.24;;
66450;Laerm;56829;52.274;4.770;2022-10-16T00:35:15;39.63;37.18;44.07;;
66450;Laerm;56829;52.274;4.770;2022-10-16T00:35:25;39.17;36.77;43.99;;
66450;Laerm;56829;52.274;4.770;2022-10-16T00:35:35;42.76;39.69;51.21;;
66450;Laerm;56829;52.274;4.770;2022-10-16T00:35:45;47.64;40.12;54.86;;
66450;Laerm;56829;52.274;4.770;2022-10-16T00:35:57;37.33;35.36;41.60;;
66450;Laerm;56829;52.274;4.770;2022-10-16T00:36:08;36.24;34.63;39.12;;
66450;Laerm;56829;52.274;4.770;2022-10-16T00:36:20;36.60;34.72;38.77;;
66450;Laerm;56829;52.274;4.770;2022-10-16T00:36:31;39.90;36.21;46.61;;
66450;Laerm;56829;52.274;4.770;2022-10-16T00:36:42;50.73;40.03;58.86;;
66450;Laerm;56829;52.274;4.770;2022-10-16T00:36:52;39.24;37.10;42.38;;
66450;Laerm;56829;52.274;4.770;2022-10-16T00:37:02;38.32;35.81;41.77;;
66450;Laerm;56829;52.274;4.770;2022-10-16T00:37:13;37.12;35.21;39.99;;
66450;Laerm;56829;52.274;4.770;2022-10-16T00:37:23;36.55;34.92;40.80;;
66450;Laerm;56829;52.274;4.770;2022-10-16T00:37:33;35.78;34.13;37.81;;
66450;Laerm;56829;52.274;4.770;2022-10-16T00:37:43;35.95;34.01;37.62;;
66450;Laerm;56829;52.274;4.770;2022-10-16T00:37:55;41.12;36.03;48.03;;
66450;Laerm;56829;52.274;4.770;2022-10-16T00:38:07;48.35;42.25;54.38;;
66450;Laerm;56829;52.274;4.770;2022-10-16T00:38:17;53.74;43.27;70.58;;
66450;Laerm;56829;52.274;4.770;2022-10-16T00:38:27;47.97;39.95;60.77;;
66450;Laerm;56829;52.274;4.770;2022-10-16T00:38:38;40.94;36.34;44.29;;
66450;Laerm;56829;52.274;4.770;2022-10-16T00:38:51;37.94;35.84;40.54;;
66450;Laerm;56829;52.274;4.770;2022-10-16T00:39:03;40.55;35.40;46.35;;
66450;Laerm;56829;52.274;4.770;2022-10-16T00:39:13;38.93;36.98;42.85;;
66450;Laerm;56829;52.274;4.770;2022-10-16T00:39:24;38.55;36.81;41.72;;
66450;Laerm;56829;52.274;4.770;2022-10-16T00:39:34;38.72;36.05;45.25;;
66450;Laerm;56829;52.274;4.770;2022-10-16T00:39:45;41.44;36.57;47.06;;
66450;Laerm;56829;52.274;4.770;2022-10-16T00:39:55;38.50;36.14;43.36;;
66450;Laerm;56829;52.274;4.770;2022-10-16T00:40:06;37.70;35.50;40.73;;
66450;Laerm;56829;52.274;4.770;2022-10-16T00:40:16;37.89;35.43;41.99;;
66450;Laerm;56829;52.274;4.770;2022-10-16T00:40:26;39.70;36.23;45.95;;
66450;Laerm;56829;52.274;4.770;2022-10-16T00:40:38;39.33;35.43;44.41;;
66450;Laerm;56829;52.274;4.770;2022-10-16T00:40:48;36.38;34.71;38.81;;
66450;Laerm;56829;52.274;4.770;2022-10-16T00:40:58;35.06;33.32;36.78;;
66450;Laerm;56829;52.274;4.770;2022-10-16T00:41:10;34.63;33.08;36.18;;
66450;Laerm;56829;52.274;4.770;2022-10-16T00:41:22;35.07;33.27;38.17;;
66450;Laerm;56829;52.274;4.770;2022-10-16T00:41:32;34.75;33.18;36.62;;
66450;Laerm;56829;52.274;4.770;2022-10-16T00:41:43;34.56;32.95;36.41;;
66450;Laerm;56829;52.274;4.770;2022-10-16T00:41:53;35.15;33.06;37.21;;
66450;Laerm;56829;52.274;4.770;2022-10-16T00:42:03;38.02;35.15;44.27;;
66450;Laerm;56829;52.274;4.770;2022-10-16T00:42:14;38.54;35.86;41.52;;
66450;Laerm;56829;52.274;4.770;2022-10-16T00:42:25;40.20;37.08;47.51;;
66450;Laerm;56829;52.274;4.770;2022-10-16T00:42:35;37.06;34.13;40.67;;
66450;Laerm;56829;52.274;4.770;2022-10-16T00:42:46;36.92;34.70;39.32;;
66450;Laerm;56829;52.274;4.770;2022-10-16T00:42:56;38.51;37.02;43.61;;
66450;Laerm;56829;52.274;4.770;2022-10-16T00:43:12;37.72;34.52;40.01;;
66450;Laerm;56829;52.274;4.770;2022-10-16T00:43:36;35.53;33.45;38.16;;
66450;Laerm;56829;52.274;4.770;2022-10-16T00:43:48;35.42;33.28;37.15;;
66450;Laerm;56829;52.274;4.770;2022-10-16T00:43:59;36.28;33.90;39.36;;
66450;Laerm;56829;52.274;4.770;2022-10-16T00:44:53;43.59;35.04;49.99;;
66450;Laerm;56829;52.274;4.770;2022-10-16T00:45:04;44.82;37.10;54.71;;
66450;Laerm;56829;52.274;4.770;2022-10-16T00:45:14;40.13;37.40;50.26;;
66450;Laerm;56829;52.274;4.770;2022-10-16T00:45:25;38.07;35.11;43.97;;
66450;Laerm;56829;52.274;4.770;2022-10-16T00:45:35;37.06;34.74;42.10;;
66450;Laerm;56829;52.274;4.770;2022-10-16T00:45:45;38.51;36.44;41.64;;
66450;Laerm;56829;52.274;4.770;2022-10-16T00:45:55;41.56;36.87;49.45;;
66450;Laerm;56829;52.274;4.770;2022-10-16T00:46:10;43.17;40.13;48.11;;
66450;Laerm;56829;52.274;4.770;2022-10-16T00:46:28;43.11;38.01;50.93;;
66450;Laerm;56829;52.274;4.770;2022-10-16T00:46:41;48.92;34.21;59.63;;
66450;Laerm;56829;52.274;4.770;2022-10-16T00:46:52;34.24;32.62;36.50;;
66450;Laerm;56829;52.274;4.770;2022-10-16T00:47:02;33.85;32.35;35.75;;
66450;Laerm;56829;52.274;4.770;2022-10-16T00:47:14;34.44;33.04;36.01;;
66450;Laerm;56829;52.274;4.770;2022-10-16T00:47:29;36.05;33.50;38.53;;
66450;Laerm;56829;52.274;4.770;2022-10-16T00:47:41;38.31;35.74;42.88;;
66450;Laerm;56829;52.274;4.770;2022-10-16T00:47:52;37.42;34.20;42.50;;
66450;Laerm;56829;52.274;4.770;2022-10-16T00:48:04;36.61;34.29;40.56;;
66450;Laerm;56829;52.274;4.770;2022-10-16T00:48:14;34.49;32.66;36.66;;
66450;Laerm;56829;52.274;4.770;2022-10-16T00:48:24;34.19;32.67;35.57;;
66450;Laerm;56829;52.274;4.770;2022-10-16T00:48:35;34.36;32.81;36.58;;
66450;Laerm;56829;52.274;4.770;2022-10-16T00:48:48;35.21;33.24;37.02;;
66450;Laerm;56829;52.274;4.770;2022-10-16T00:49:15;35.71;33.53;38.24;;
66450;Laerm;56829;52.274;4.770;2022-10-16T00:49:26;35.50;33.82;43.25;;
66450;Laerm;56829;52.274;4.770;2022-10-16T00:49:36;35.74;34.37;37.09;;
66450;Laerm;56829;52.274;4.770;2022-10-16T00:49:47;36.74;34.26;40.33;;
66450;Laerm;56829;52.274;4.770;2022-10-16T00:50:00;36.50;34.06;40.04;;
66450;Laerm;56829;52.274;4.770;2022-10-16T00:50:26;36.85;34.72;42.63;;
66450;Laerm;56829;52.274;4.770;2022-10-16T00:50:37;48.57;34.85;59.04;;
66450;Laerm;56829;52.274;4.770;2022-10-16T00:50:48;45.66;41.86;53.10;;
66450;Laerm;56829;52.274;4.770;2022-10-16T00:50:58;40.18;37.28;46.76;;
66450;Laerm;56829;52.274;4.770;2022-10-16T00:51:09;37.69;35.76;41.03;;
66450;Laerm;56829;52.274;4.770;2022-10-16T00:51:20;37.32;35.45;41.90;;
66450;Laerm;56829;52.274;4.770;2022-10-16T00:51:36;36.09;34.42;38.63;;
66450;Laerm;56829;52.274;4.770;2022-10-16T00:51:47;35.58;33.65;38.16;;
66450;Laerm;56829;52.274;4.770;2022-10-16T00:51:58;37.46;34.58;40.54;;
66450;Laerm;56829;52.274;4.770;2022-10-16T00:52:08;41.21;37.43;45.07;;
66450;Laerm;56829;52.274;4.770;2022-10-16T00:52:20;41.75;39.03;44.55;;
66450;Laerm;56829;52.274;4.770;2022-10-16T00:52:30;51.31;42.75;58.64;;
66450;Laerm;56829;52.274;4.770;2022-10-16T00:52:41;41.42;36.91;48.37;;
66450;Laerm;56829;52.274;4.770;2022-10-16T00:52:53;38.03;35.78;41.00;;
66450;Laerm;56829;52.274;4.770;2022-10-16T00:53:03;37.06;35.29;38.78;;
66450;Laerm;56829;52.274;4.770;2022-10-16T00:53:13;37.94;34.77;44.62;;
66450;Laerm;56829;52.274;4.770;2022-10-16T00:53:24;36.87;34.05;40.81;;
66450;Laerm;56829;52.274;4.770;2022-10-16T00:53:35;37.58;35.26;43.44;;
66450;Laerm;56829;52.274;4.770;2022-10-16T00:53:45;41.34;36.74;46.75;;
66450;Laerm;56829;52.274;4.770;2022-10-16T00:53:56;39.88;37.11;47.79;;
66450;Laerm;56829;52.274;4.770;2022-10-16T00:54:08;50.81;35.62;75.36;;
66450;Laerm;56829;52.274;4.770;2022-10-16T00:54:23;38.87;35.73;45.27;;
66450;Laerm;56829;52.274;4.770;2022-10-16T00:54:34;42.10;37.89;51.74;;
66450;Laerm;56829;52.274;4.770;2022-10-16T00:54:44;44.09;41.59;51.71;;
66450;Laerm;56829;52.274;4.770;2022-10-16T00:54:56;45.85;41.03;65.92;;
66450;Laerm;56829;52.274;4.770;2022-10-16T00:55:06;43.23;40.64;58.65;;
66450;Laerm;56829;52.274;4.770;2022-10-16T00:55:18;43.19;38.84;63.36;;
66450;Laerm;56829;52.274;4.770;2022-10-16T00:55:29;51.08;41.56;59.76;;
66450;Laerm;56829;52.274;4.770;2022-10-16T00:55:40;41.52;37.22;45.41;;
66450;Laerm;56829;52.274;4.770;2022-10-16T00:55:50;38.47;36.09;41.65;;
66450;Laerm;56829;52.274;4.770;2022-10-16T00:56:01;36.38;34.90;37.83;;
66450;Laerm;56829;52.274;4.770;2022-10-16T00:56:11;38.33;36.09;40.73;;
66450;Laerm;56829;52.274;4.770;2022-10-16T00:56:21;44.58;38.83;52.88;;
66450;Laerm;56829;52.274;4.770;2022-10-16T00:56:32;43.23;39.63;47.74;;
66450;Laerm;56829;52.274;4.770;2022-10-16T00:56:42;44.78;37.50;60.74;;
66450;Laerm;56829;52.274;4.770;2022-10-16T00:56:53;36.76;34.97;39.95;;
66450;Laerm;56829;52.274;4.770;2022-10-16T00:57:05;37.40;34.13;41.98;;
66450;Laerm;56829;52.274;4.770;2022-10-16T00:57:15;35.47;33.36;40.04;;
66450;Laerm;56829;52.274;4.770;2022-10-16T00:57:26;34.78;33.40;37.36;;
66450;Laerm;56829;52.274;4.770;2022-10-16T00:57:37;35.55;33.85;37.90;;
66450;Laerm;56829;52.274;4.770;2022-10-16T00:57:47;43.67;35.39;53.09;;
66450;Laerm;56829;52.274;4.770;2022-10-16T00:57:57;48.32;39.18;57.02;;
66450;Laerm;56829;52.274;4.770;2022-10-16T00:58:08;39.90;37.66;42.56;;
66450;Laerm;56829;52.274;4.770;2022-10-16T00:58:19;38.82;35.38;42.94;;
66450;Laerm;56829;52.274;4.770;2022-10-16T00:58:30;46.76;35.93;54.44;;
66450;Laerm;56829;52.274;4.770;2022-10-16T00:58:40;49.84;42.24;57.23;;
66450;Laerm;56829;52.274;4.770;2022-10-16T00:58:50;44.51;40.26;58.60;;
66450;Laerm;56829;52.274;4.770;2022-10-16T00:59:02;39.30;36.91;43.74;;
66450;Laerm;56829;52.274;4.770;2022-10-16T00:59:18;39.56;36.89;45.64;;
66450;Laerm;56829;52.274;4.770;2022-10-16T00:59:31;37.03;34.70;39.17;;
66450;Laerm;56829;52.274;4.770;2022-10-16T00:59:42;36.06;33.60;39.15;;
66450;Laerm;56829;52.274;4.770;2022-10-16T00:59:52;36.06;33.67;39.16;;
66450;Laerm;56829;52.274;4.770;2022-10-16T01:00:04;40.37;35.85;46.82;;
66450;Laerm;56829;52.274;4.770;2022-10-16T01:00:17;49.47;37.34;56.24;;
66450;Laerm;56829;52.274;4.770;2022-10-16T01:00:28;43.18;36.63;57.38;;
66450;Laerm;56829;52.274;4.770;2022-10-16T01:00:38;39.44;35.52;48.69;;
66450;Laerm;56829;52.274;4.770;2022-10-16T01:00:48;37.96;34.42;54.57;;
66450;Laerm;56829;52.274;4.770;2022-10-16T01:00:58;36.25;34.04;45.37;;
66450;Laerm;56829;52.274;4.770;2022-10-16T01:01:09;36.25;33.79;42.60;;
66450;Laerm;56829;52.274;4.770;2022-10-16T01:01:19;35.34;33.17;39.50;;
66450;Laerm;56829;52.274;4.770;2022-10-16T01:01:29;35.23;33.73;36.71;;
66450;Laerm;56829;52.274;4.770;2022-10-16T01:01:39;34.39;33.08;36.42;;
66450;Laerm;56829;52.274;4.770;2022-10-16T01:01:49;34.81;33.13;36.50;;
66450;Laerm;56829;52.274;4.770;2022-10-16T01:02:00;37.74;34.21;43.03;;